Rockland, ME

7:05 AM EST on March 04, 2015 (GMT -0500)
Upper Park Street | Change Station
CLOSE
Current Station
Personal Weather Station
Location: Rockland, ME
Elevation: 79 ft
Nearby Weather Stations

Elev 79 ft 44.10 °N, 69.13 °W | Updated 9 seconds ago

Overcast
Overcast
37.4 °F
Feels Like 32 °F
N
6.3
Wind Variable Wind from SW
Gusts 15.0 mph

Today
High -- | Low -- °F
--% Chance of Precip.
Yesterday
High -- | Low -- °F
Precip. -- in
6:08 AM 5:28 PM
Waxing Gibbous, 99% visible
Pressure 29.61 in
Visibility 10.0 miles
Clouds Mostly Cloudy 1000 ft
Mostly Cloudy 4600 ft
Windchill 32 °F
Dew Point 36 °F
Humidity 97%
Rainfall 0.07 in
Snow Depth Not available.
UV 0 out of 12
Pollen .30 out of 12
Air Quality Not available.
Flu Activity Not available.
METAR KRKD 041155Z AUTO 25011KT 10SM BKN010 BKN046 01/00 A2961 RMK AO1 60004 70005 10020 20000 52003

More Conditions Fewer Conditions

Pressure 29.61 in
Visibility 10.0 miles
Clouds Mostly Cloudy 1000 ft
Mostly Cloudy 4600 ft
Windchill 32 °F
Dew Point 36 °F
Humidity 97%
Rainfall 0.07 in
Snow Depth Not available.
UV 0 out of 12
Pollen .30 out of 12
Air Quality Not available.
Flu Activity Not available.
METAR KRKD 041155Z AUTO 25011KT 10SM BKN010 BKN046 01/00 A2961 RMK AO1 60004 70005 10020 20000 52003

More Conditions Fewer Conditions

10-Day Weather Forecast

Almanac

Astronomy

Mar. 04, 2015 Rise Set
Actual Time
Civil Twilight
Nautical Twilight
Astronomical Twilight
Moon
Length of Visible Light
Length of Day
Tomorrow will be .
, % of the Moon is Illuminated

Today's Extremes

State Highs State Lows

Community

WunderPhotos

Upload Photos

1,802,436 photos uploaded!

WunderBlogs® & News

Nearby

Air Quality

  Air Quality AQ Index Pollutant
Not available.

Snow Depth

Station Depth Elevation

Earthquake Activity

City Distance Mag. Time & Date
Minimum magnitude displayed is 2.5.

Coastal Water Temperatures

Place Temperature

Nearby Weather Stations